Time,TemperatureF,DewpointF,PressureIn,WindDirection,WindDirectionDegrees,WindSpeedMPH,WindSpeedGustMPH,Humidity,HourlyPrecipIn,Conditions,Clouds,dailyrainin,SoftwareType,DateUTC
2013-10-21 00:00:00,54.7,19.2,27.34,North,0,0.0,0.0,25,0.00,,,0.00,WUHU216HW,2013-10-21 07:00:00,
2013-10-21 00:05:00,54.7,19.2,27.34,North,0,0.0,0.0,25,0.00,,,0.00,WUHU216HW,2013-10-21 07:05:00,
2013-10-21 00:10:00,54.7,19.2,27.34,North,0,0.0,0.0,25,0.00,,,0.00,WUHU216HW,2013-10-21 07:10:00,
2013-10-21 00:30:00,53.8,18.5,27.34,North,0,0.0,0.0,25,0.00,,,0.00,WUHU216HW,2013-10-21 07:30:00,
2013-10-21 00:35:00,53.8,19.4,27.34,North,0,0.0,0.0,26,0.00,,,0.00,WUHU216HW,2013-10-21 07:35:00,
2013-10-21 01:00:00,52.7,20.3,27.35,SE,135,0.0,0.0,28,0.00,,,0.00,WUHU216HW,2013-10-21 08:00:00,
2013-10-21 01:05:00,52.7,20.3,27.35,SE,135,0.0,0.0,28,0.00,,,0.00,WUHU216HW,2013-10-21 08:05:00,
2013-10-21 01:10:00,52.7,20.3,27.35,SE,135,0.0,0.0,28,0.00,,,0.00,WUHU216HW,2013-10-21 08:10:00,
2013-10-21 01:30:00,51.8,19.5,27.35,East,90,0.0,0.0,28,0.00,,,0.00,WUHU216HW,2013-10-21 08:30:00,
2013-10-21 01:35:00,51.8,19.5,27.35,East,90,0.0,0.0,28,0.00,,,0.00,WUHU216HW,2013-10-21 08:35:00,
2013-10-21 02:00:00,51.3,19.1,27.35,East,90,0.0,0.0,28,0.00,,,0.00,WUHU216HW,2013-10-21 09:00:00,
2013-10-21 02:05:00,51.3,19.1,27.35,East,90,0.0,0.0,28,0.00,,,0.00,WUHU216HW,2013-10-21 09:05:00,
2013-10-21 02:30:00,50.4,19.2,27.35,East,90,0.2,0.2,29,0.00,,,0.00,WUHU216HW,2013-10-21 09:30:00,
2013-10-21 02:35:00,50.4,19.2,27.35,East,90,0.2,0.2,29,0.00,,,0.00,WUHU216HW,2013-10-21 09:35:00,
2013-10-21 03:00:00,50.6,19.4,27.35,SSW,203,0.0,0.0,29,0.00,,,0.00,WUHU216HW,2013-10-21 10:00:00,
2013-10-21 03:05:00,50.6,19.4,27.35,SSW,203,0.0,0.0,29,0.00,,,0.00,WUHU216HW,2013-10-21 10:05:00,
2013-10-21 03:10:00,50.6,19.4,27.35,SSW,203,0.0,0.0,29,0.00,,,0.00,WUHU216HW,2013-10-21 10:10:00,
2013-10-21 03:30:00,50.0,19.8,27.35,East,90,0.0,0.0,30,0.00,,,0.00,WUHU216HW,2013-10-21 10:30:00,
2013-10-21 03:35:00,49.9,19.6,27.35,East,90,0.0,0.0,30,0.00,,,0.00,WUHU216HW,2013-10-21 10:35:00,
2013-10-21 04:00:00,49.1,19.7,27.35,East,90,0.0,0.0,31,0.00,,,0.00,WUHU216HW,2013-10-21 11:00:00,
2013-10-21 04:05:00,49.1,19.7,27.35,East,90,0.0,0.0,31,0.00,,,0.00,WUHU216HW,2013-10-21 11:05:00,
2013-10-21 04:10:00,49.1,19.7,27.35,East,90,0.0,0.0,31,0.00,,,0.00,WUHU216HW,2013-10-21 11:10:00,
2013-10-21 04:30:00,48.8,20.2,27.36,East,90,0.0,0.0,32,0.00,,,0.00,WUHU216HW,2013-10-21 11:30:00,
2013-10-21 04:35:00,48.8,20.2,27.36,East,90,0.0,0.0,32,0.00,,,0.00,WUHU216HW,2013-10-21 11:35:00,
2013-10-21 05:00:00,48.1,20.9,27.36,East,90,0.0,0.0,34,0.00,,,0.00,WUHU216HW,2013-10-21 12:00:00,
2013-10-21 05:05:00,48.1,20.9,27.36,East,90,0.0,0.0,34,0.00,,,0.00,WUHU216HW,2013-10-21 12:05:00,
2013-10-21 05:30:00,47.3,20.3,27.36,East,90,0.0,0.0,34,0.00,,,0.00,WUHU216HW,2013-10-21 12:30:00,
2013-10-21 05:35:00,47.3,20.3,27.36,East,90,0.0,0.0,34,0.00,,,0.00,WUHU216HW,2013-10-21 12:35:00,
2013-10-21 06:00:00,47.0,21.3,27.37,East,90,0.0,0.0,36,0.00,,,0.00,WUHU216HW,2013-10-21 13:00:00,
2013-10-21 06:05:00,47.0,20.5,27.37,East,90,0.0,0.0,35,0.00,,,0.00,WUHU216HW,2013-10-21 13:05:00,
2013-10-21 06:30:00,46.4,20.1,27.37,East,90,0.0,0.0,35,0.00,,,0.00,WUHU216HW,2013-10-21 13:30:00,
2013-10-21 06:35:00,46.4,20.1,27.37,East,90,0.0,0.0,35,0.00,,,0.00,WUHU216HW,2013-10-21 13:35:00,
2013-10-21 07:00:00,46.1,21.1,27.38,ESE,113,0.0,0.0,37,0.00,,,0.00,WUHU216HW,2013-10-21 14:00:00,
2013-10-21 07:05:00,46.1,21.1,27.38,ESE,113,0.0,0.0,37,0.00,,,0.00,WUHU216HW,2013-10-21 14:05:00,
2013-10-21 07:30:00,48.2,23.7,27.39,ESE,113,0.0,0.0,38,0.00,,,0.00,WUHU216HW,2013-10-21 14:30:00,
2013-10-21 07:35:00,48.2,23.7,27.39,ESE,113,0.0,0.0,38,0.00,,,0.00,WUHU216HW,2013-10-21 14:35:00,
2013-10-21 08:00:00,51.8,24.1,27.40,NE,45,0.0,0.0,34,0.00,,,0.00,WUHU216HW,2013-10-21 15:00:00,
2013-10-21 08:05:00,51.8,24.1,27.40,NE,45,0.0,0.0,34,0.00,,,0.00,WUHU216HW,2013-10-21 15:05:00,
2013-10-21 08:30:00,55.8,25.5,27.40,SE,135,0.0,0.0,31,0.00,,,0.00,WUHU216HW,2013-10-21 15:30:00,
2013-10-21 08:35:00,55.8,25.5,27.40,SE,135,0.0,0.0,31,0.00,,,0.00,WUHU216HW,2013-10-21 15:35:00,
2013-10-21 09:00:00,59.9,26.6,27.40,SW,225,1.1,1.1,28,0.00,,,0.00,WUHU216HW,2013-10-21 16:00:00,
2013-10-21 09:05:00,59.9,26.6,27.40,SW,225,0.0,1.1,28,0.00,,,0.00,WUHU216HW,2013-10-21 16:05:00,
2013-10-21 09:30:00,64.6,26.7,27.40,WNW,293,0.0,0.0,24,0.00,,,0.00,WUHU216HW,2013-10-21 16:30:00,
2013-10-21 09:35:00,64.8,26.7,27.40,WNW,293,0.0,0.0,24,0.00,,,0.00,WUHU216HW,2013-10-21 16:35:00,
2013-10-21 10:00:00,68.4,27.8,27.40,WSW,248,0.0,0.0,22,0.00,,,0.00,WUHU216HW,2013-10-21 17:00:00,
2013-10-21 10:05:00,68.4,27.8,27.40,WSW,248,0.0,0.0,22,0.00,,,0.00,WUHU216HW,2013-10-21 17:05:00,
2013-10-21 10:30:00,71.3,24.9,27.40,SSE,158,2.0,2.0,18,0.00,,,0.00,WUHU216HW,2013-10-21 17:30:00,
2013-10-21 10:35:00,71.3,24.9,27.40,SSE,158,2.0,2.0,18,0.00,,,0.00,WUHU216HW,2013-10-21 17:35:00,
2013-10-21 10:40:00,71.3,24.9,27.40,SSE,158,2.0,2.0,18,0.00,,,0.00,WUHU216HW,2013-10-21 17:40:00,
2013-10-21 11:00:00,73.1,24.9,27.40,SE,135,1.3,1.3,17,0.00,,,0.00,WUHU216HW,2013-10-21 18:00:00,
2013-10-21 11:05:00,73.3,25.0,27.40,SSE,158,0.9,1.6,17,0.00,,,0.00,WUHU216HW,2013-10-21 18:05:00,
2013-10-21 11:10:00,73.3,25.0,27.40,SSE,158,0.9,1.6,17,0.00,,,0.00,WUHU216HW,2013-10-21 18:10:00,
2013-10-21 11:30:00,75.2,23.2,27.39,WNW,293,0.4,0.4,15,0.00,,,0.00,WUHU216HW,2013-10-21 18:30:00,
2013-10-21 11:35:00,75.2,23.2,27.39,WNW,293,0.2,0.4,15,0.00,,,0.00,WUHU216HW,2013-10-21 18:35:00,
2013-10-21 12:00:00,76.7,21.1,27.39,SW,225,0.4,0.4,13,0.00,,,0.00,WUHU216HW,2013-10-21 19:00:00,
2013-10-21 12:05:00,76.7,21.1,27.39,SW,225,0.4,0.4,13,0.00,,,0.00,WUHU216HW,2013-10-21 19:05:00,
2013-10-21 12:30:00,78.3,25.6,27.37,SW,225,0.7,0.7,15,0.00,,,0.00,WUHU216HW,2013-10-21 19:30:00,
2013-10-21 12:35:00,78.3,25.6,27.37,SW,225,1.3,1.3,15,0.00,,,0.00,WUHU216HW,2013-10-21 19:35:00,
2013-10-21 13:00:00,79.7,21.7,27.36,West,270,1.3,1.3,12,0.00,,,0.00,WUHU216HW,2013-10-21 20:00:00,
2013-10-21 13:05:00,79.7,23.4,27.36,SW,225,1.8,1.8,13,0.00,,,0.00,WUHU216HW,2013-10-21 20:05:00,
2013-10-21 13:10:00,79.7,23.4,27.36,SW,225,1.8,1.8,13,0.00,,,0.00,WUHU216HW,2013-10-21 20:10:00,
2013-10-21 13:30:00,80.8,22.6,27.35,West,270,1.1,1.1,12,0.00,,,0.00,WUHU216HW,2013-10-21 20:30:00,
2013-10-21 13:35:00,81.0,22.8,27.35,NNW,338,1.8,1.8,12,0.00,,,0.00,WUHU216HW,2013-10-21 20:35:00,
2013-10-21 14:00:00,82.1,22.0,27.34,WSW,248,1.8,1.8,11,0.00,,,0.00,WUHU216HW,2013-10-21 21:00:00,
2013-10-21 14:05:00,82.1,22.0,27.34,WSW,248,1.3,2.0,11,0.00,,,0.00,WUHU216HW,2013-10-21 21:05:00,
2013-10-21 14:10:00,82.1,22.0,27.34,WSW,248,1.3,2.0,11,0.00,,,0.00,WUHU216HW,2013-10-21 21:10:00,
2013-10-21 14:30:00,83.2,22.7,27.34,NW,315,2.0,2.0,11,0.00,,,0.00,WUHU216HW,2013-10-21 21:30:00,
2013-10-21 14:35:00,83.2,22.7,27.34,NW,315,2.5,2.5,11,0.00,,,0.00,WUHU216HW,2013-10-21 21:35:00,
2013-10-21 15:00:00,83.3,21.2,27.34,WSW,248,1.3,1.3,10,0.00,,,0.00,WUHU216HW,2013-10-21 22:00:00,
2013-10-21 15:05:00,83.3,21.2,27.34,SW,225,0.9,1.3,10,0.00,,,0.00,WUHU216HW,2013-10-21 22:05:00,
2013-10-21 15:10:00,83.3,21.2,27.34,SW,225,0.9,1.3,10,0.00,,,0.00,WUHU216HW,2013-10-21 22:10:00,
2013-10-21 15:30:00,83.3,21.2,27.33,WSW,248,4.3,4.3,10,0.00,,,0.00,WUHU216HW,2013-10-21 22:30:00,
2013-10-21 15:35:00,83.3,21.2,27.33,WNW,293,2.7,4.3,10,0.00,,,0.00,WUHU216HW,2013-10-21 22:35:00,
2013-10-21 16:00:00,83.2,21.1,27.33,West,270,2.0,2.0,10,0.00,,,0.00,WUHU216HW,2013-10-21 23:00:00,
2013-10-21 16:05:00,83.2,21.1,27.33,West,270,1.8,2.0,10,0.00,,,0.00,WUHU216HW,2013-10-21 23:05:00,
2013-10-21 16:30:00,82.4,20.5,27.33,SW,225,3.1,3.1,10,0.00,,,0.00,WUHU216HW,2013-10-21 23:30:00,
2013-10-21 16:35:00,82.4,20.5,27.33,SW,225,3.1,3.1,10,0.00,,,0.00,WUHU216HW,2013-10-21 23:35:00,
2013-10-21 17:00:00,81.4,19.6,27.33,WSW,248,2.5,2.5,10,0.00,,,0.00,WUHU216HW,2013-10-22 00:00:00,
2013-10-21 17:05:00,81.4,19.6,27.33,West,270,3.1,3.1,10,0.00,,,0.00,WUHU216HW,2013-10-22 00:05:00,
2013-10-21 17:30:00,79.6,18.2,27.34,WSW,248,1.1,1.1,10,0.00,,,0.00,WUHU216HW,2013-10-22 00:30:00,
2013-10-21 17:35:00,79.6,18.2,27.34,WSW,248,1.8,1.8,10,0.00,,,0.00,WUHU216HW,2013-10-22 00:35:00,
2013-10-21 18:00:00,77.4,18.3,27.34,West,270,0.9,0.9,11,0.00,,,0.00,WUHU216HW,2013-10-22 01:00:00,
2013-10-21 18:05:00,77.4,18.3,27.34,WNW,293,1.3,1.8,11,0.00,,,0.00,WUHU216HW,2013-10-22 01:05:00,
2013-10-21 18:30:00,75.6,18.5,27.35,NNE,23,0.2,0.2,12,0.00,,,0.00,WUHU216HW,2013-10-22 01:30:00,
2013-10-21 18:35:00,75.4,18.4,27.35,NNE,23,0.4,0.4,12,0.00,,,0.00,WUHU216HW,2013-10-22 01:35:00,
2013-10-21 19:00:00,72.9,18.2,27.36,ENE,68,0.0,0.0,13,0.00,,,0.00,WUHU216HW,2013-10-22 02:00:00,
2013-10-21 19:05:00,72.7,18.0,27.36,ENE,68,0.0,0.0,13,0.00,,,0.00,WUHU216HW,2013-10-22 02:05:00,
2013-10-21 19:30:00,70.2,19.2,27.37,ENE,68,0.0,0.0,15,0.00,,,0.00,WUHU216HW,2013-10-22 02:30:00,
2013-10-21 19:35:00,70.2,19.2,27.37,ENE,68,0.0,0.0,15,0.00,,,0.00,WUHU216HW,2013-10-22 02:35:00,
2013-10-21 20:00:00,68.6,19.5,27.37,ENE,68,0.0,0.0,16,0.00,,,0.00,WUHU216HW,2013-10-22 03:00:00,
2013-10-21 20:05:00,68.6,17.9,27.37,ENE,68,0.0,0.0,15,0.00,,,0.00,WUHU216HW,2013-10-22 03:05:00,
2013-10-21 20:30:00,66.6,17.9,27.38,SE,135,0.0,0.0,16,0.00,,,0.00,WUHU216HW,2013-10-22 03:30:00,
2013-10-21 20:35:00,66.6,17.9,27.38,SE,135,0.0,0.0,16,0.00,,,0.00,WUHU216HW,2013-10-22 03:35:00,
2013-10-21 21:00:00,64.1,17.5,27.39,ESE,113,0.0,0.0,17,0.00,,,0.00,WUHU216HW,2013-10-22 04:00:00,
2013-10-21 21:01:00,63.9,17.4,27.39,ESE,113,0.0,0.0,17,0.00,,,0.00,WUHU216HW,2013-10-22 04:01:00,
2013-10-21 21:02:00,63.9,17.4,27.39,ESE,113,0.0,0.0,17,0.00,,,0.00,WUHU216HW,2013-10-22 04:02:00,
2013-10-21 21:03:00,63.9,17.4,27.39,ESE,113,0.0,0.0,17,0.00,,,0.00,WUHU216HW,2013-10-22 04:03:00,
2013-10-21 21:08:00,63.9,17.4,27.39,ESE,113,0.0,0.0,17,0.00,,,0.00,WUHU216HW,2013-10-22 04:08:00,
2013-10-21 21:30:00,61.9,18.9,27.39,ESE,113,0.0,0.0,19,0.00,,,0.00,WUHU216HW,2013-10-22 04:30:00,
2013-10-21 21:35:00,61.9,18.9,27.39,ESE,113,0.0,0.0,19,0.00,,,0.00,WUHU216HW,2013-10-22 04:35:00,
2013-10-21 22:00:00,60.8,18.1,27.40,ESE,113,0.0,0.0,19,0.00,,,0.00,WUHU216HW,2013-10-22 05:00:00,
2013-10-21 22:05:00,60.7,17.9,27.40,ESE,113,0.0,0.0,19,0.00,,,0.00,WUHU216HW,2013-10-22 05:05:00,
2013-10-21 22:30:00,59.6,19.4,27.40,ESE,113,0.0,0.0,21,0.00,,,0.00,WUHU216HW,2013-10-22 05:30:00,
2013-10-21 22:35:00,59.6,19.4,27.40,ESE,113,0.0,0.0,21,0.00,,,0.00,WUHU216HW,2013-10-22 05:35:00,
2013-10-21 23:00:00,58.0,26.7,27.40,NNE,23,0.0,0.0,30,0.00,,,0.00,WUHU216HW,2013-10-22 06:00:00,
2013-10-21 23:05:00,58.0,27.5,27.40,NNE,23,0.0,0.0,31,0.00,,,0.00,WUHU216HW,2013-10-22 06:05:00,
2013-10-21 23:30:00,56.9,23.0,27.40,NNE,23,0.0,0.0,27,0.00,,,0.00,WUHU216HW,2013-10-22 06:30:00,
2013-10-21 23:35:00,56.9,23.0,27.40,NNE,23,0.0,0.0,27,0.00,,,0.00,WUHU216HW,2013-10-22 06:35:00,